Nord Explorer — HPYA — position and weather

sailwx.info

Track history (hours):
 
Tides and Currents Weather Stations Pressure Air Temp Water Temp Dewpoint Dewpoint Depression Visibility Wind Speed Wind Dir Waves Ship Positions

Nord Explorer

Last reported at 2018-Jun-12 15:33 UTC. Time now 2018-Jun-23 06:28 UTC.
Position S 29°28' E 032°46'.
Warning: this ship's position is 10 days out of date.

Length 190 m; draft 6.2 m.

Type: Cargo ship. MMSI: 370687000.

Date/timePositionNaut miles runAvg speedWind from/ knotsBaromVisibWave heightAir tempDewpointWater temp
2018-Jun-12 15:33S 29°28' E 032°46'210.4
2018-Jun-12 15:21S 29°29' E 032°43'410.3
2018-Jun-12 15:00S 29°30' E 032°39'1010.1
2018-Jun-12 13:58S 29°32' E 032°28'510.2
2018-Jun-12 13:29S 29°33' E 032°22'510.3
2018-Jun-12 13:01S 29°34' E 032°17'510.1
2018-Jun-12 12:31S 29°36' E 032°11'5 9.8
2018-Jun-12 12:01S 29°37' E 032°06'5 9.5
2018-Jun-12 11:30S 29°38' E 032°00'5 9.4
2018-Jun-12 11:01S 29°39' E 031°55'5 9.4
2018-Jun-12 10:31S 29°40' E 031°50'5 9.5
2018-Jun-12 10:01S 29°42' E 031°45'5 9.6
2018-Jun-12 09:30S 29°43' E 031°39'510.8
2018-Jun-12 09:01S 29°44' E 031°33'611.5
2018-Jun-12 08:31S 29°46' E 031°27'611.7
2018-Jun-12 08:00S 29°47' E 031°20'611.8
2018-Jun-12 07:30S 29°49' E 031°14'611.4
2018-Jun-12 07:01S 29°50' E 031°07'4 8.5
2018-Jun-12 06:31S 29°52' E 031°03'1 1.9
2018-Jun-12 06:01S 29°53' E 031°03'0 0.1
2018-Jun-12 05:31S 29°53' E 031°03'0 0.0
2018-Jun-12 04:58S 29°53' E 031°03'0 0.0
2018-Jun-12 04:28S 29°53' E 031°03'0 0.0
2018-Jun-12 03:58S 29°53' E 031°03'0 0.0
2018-Jun-12 03:28S 29°53' E 031°03'0 0.0
2018-Jun-12 02:58S 29°53' E 031°03'0 0.0
2018-Jun-12 02:28S 29°53' E 031°03'0 0.0
2018-Jun-12 01:55S 29°53' E 031°03'0 0.0
2018-Jun-12 01:28S 29°53' E 031°03'0 0.0
2018-Jun-12 00:58S 29°53' E 031°03'0 0.0
2018-Jun-12 00:28S 29°53' E 031°03'0 0.0
2018-Jun-11 23:58S 29°53' E 031°03'0 0.0
2018-Jun-11 23:28S 29°53' E 031°03'0 0.0
2018-Jun-11 22:58S 29°53' E 031°03'0 0.0
2018-Jun-11 22:28S 29°53' E 031°03'0 0.0
2018-Jun-11 21:58S 29°53' E 031°03'0 0.0
2018-Jun-11 21:28S 29°53' E 031°03'0 0.0
2018-Jun-11 20:58S 29°53' E 031°03'0 0.0
2018-Jun-11 20:28S 29°53' E 031°03'0 0.0
2018-Jun-11 19:58S 29°53' E 031°03'0 0.0
2018-Jun-11 19:28S 29°53' E 031°03'0 0.0
2018-Jun-11 18:58S 29°53' E 031°03'0 0.0
2018-Jun-11 18:28S 29°53' E 031°03'0 0.0
2018-Jun-11 17:58S 29°53' E 031°03'0 0.0
2018-Jun-11 17:28S 29°53' E 031°03'0 0.0
2018-Jun-11 16:58S 29°53' E 031°03'0 0.0
2018-Jun-11 16:28S 29°53' E 031°03'0 0.0
2018-Jun-11 15:58S 29°53' E 031°03'0 0.0
2018-Jun-11 15:28S 29°53' E 031°03'0 0.0
2018-Jun-11 14:58S 29°53' E 031°03'0 0.0
2018-Jun-11 14:28S 29°53' E 031°03'0 0.0
2018-Jun-11 13:58S 29°53' E 031°03'0 0.0
2018-Jun-11 13:28S 29°53' E 031°03'0 0.0
2018-Jun-11 12:58S 29°53' E 031°03'0 0.0
2018-Jun-11 12:25S 29°53' E 031°03'0 0.0
2018-Jun-11 11:58S 29°53' E 031°03'0 0.0
2018-Jun-11 11:28S 29°53' E 031°03'0 0.0
2018-Jun-11 10:58S 29°53' E 031°03'0 0.0
2018-Jun-11 10:28S 29°53' E 031°03'0 0.0
2018-Jun-11 09:58S 29°53' E 031°03'0 0.0
2018-Jun-11 09:28S 29°53' E 031°03'0 0.0
2018-Jun-11 08:58S 29°53' E 031°03'0 0.0
2018-Jun-11 08:28S 29°53' E 031°03'0 0.0
2018-Jun-11 07:58S 29°53' E 031°03'0 0.0
2018-Jun-11 07:25S 29°53' E 031°03'0 0.0
2018-Jun-11 06:58S 29°53' E 031°03'0 0.0
2018-Jun-11 06:28S 29°53' E 031°03'0 0.0
2018-Jun-11 05:58S 29°53' E 031°03'0 0.0
2018-Jun-11 05:28S 29°53' E 031°03'0 0.0
2018-Jun-11 04:58S 29°53' E 031°03'0 0.0
2018-Jun-11 04:25S 29°53' E 031°03'0 0.0
2018-Jun-11 03:58S 29°53' E 031°03'0 0.0
2018-Jun-11 03:28S 29°53' E 031°03'0 0.0
2018-Jun-11 02:55S 29°53' E 031°03'0 0.2
2018-Jun-11 02:25S 29°53' E 031°02'0 0.2
2018-Jun-11 01:58S 29°53' E 031°03'0 0.0
2018-Jun-11 01:25S 29°53' E 031°03'0 0.0
2018-Jun-11 00:58S 29°53' E 031°03'0 0.0
2018-Jun-11 00:25S 29°53' E 031°03'0 0.0
2018-Jun-10 23:58S 29°53' E 031°03'0 0.0
2018-Jun-10 23:28S 29°53' E 031°03'0 0.0
2018-Jun-10 22:58S 29°53' E 031°03'0 0.0
2018-Jun-10 22:28S 29°53' E 031°03'0 0.0
2018-Jun-10 21:58S 29°53' E 031°03'0 0.0
2018-Jun-10 21:28S 29°53' E 031°03'0 0.0
2018-Jun-10 20:58S 29°53' E 031°03'0 0.0
2018-Jun-10 20:28S 29°53' E 031°03'0 0.0
2018-Jun-10 19:58S 29°53' E 031°03'0 0.0
2018-Jun-10 19:28S 29°53' E 031°03'0 0.0
2018-Jun-10 18:58S 29°53' E 031°03'0 0.0
2018-Jun-10 18:28S 29°53' E 031°03'0 0.0
2018-Jun-10 17:58S 29°53' E 031°03'0 0.0
2018-Jun-10 17:28S 29°53' E 031°03'0 0.0
2018-Jun-10 16:58S 29°53' E 031°03'0 0.0
2018-Jun-10 16:28S 29°53' E 031°03'0 0.0
2018-Jun-10 15:58S 29°53' E 031°03'0 0.0
2018-Jun-10 15:28S 29°53' E 031°03'0 0.0
2018-Jun-10 14:58S 29°53' E 031°03'0 0.0
2018-Jun-10 13:58S 29°53' E 031°03'0 0.0
2018-Jun-10 13:28S 29°53' E 031°03'0 0.0
2018-Jun-10 12:58S 29°53' E 031°03'0 0.0
2018-Jun-10 12:28S 29°53' E 031°03'0 0.0
2018-Jun-10 11:58S 29°53' E 031°03'0 0.0
2018-Jun-10 11:28S 29°53' E 031°03'0 0.0
2018-Jun-10 10:58S 29°53' E 031°03'0 0.0
2018-Jun-10 10:25S 29°53' E 031°03'0 0.0
2018-Jun-10 09:58S 29°53' E 031°03'0 0.0
2018-Jun-10 09:28S 29°53' E 031°03'0 0.0
2018-Jun-10 08:58S 29°53' E 031°03'0 0.0
2018-Jun-10 08:28S 29°53' E 031°03'0 0.0
2018-Jun-10 07:58S 29°53' E 031°03'0 0.0
2018-Jun-10 07:28S 29°53' E 031°03'0 0.0
2018-Jun-10 06:58S 29°53' E 031°03'0 0.0
2018-Jun-10 06:28S 29°53' E 031°03'0 0.0
2018-Jun-10 05:58S 29°53' E 031°03'0 0.0
2018-Jun-10 05:28S 29°53' E 031°03'0 0.0
2018-Jun-10 04:58S 29°53' E 031°03'0 0.0
2018-Jun-10 04:28S 29°53' E 031°03'0 0.0
2018-Jun-10 03:58S 29°53' E 031°03'0 0.0
2018-Jun-10 03:28S 29°53' E 031°03'0 0.0
2018-Jun-10 02:58S 29°53' E 031°03'0 0.0
2018-Jun-10 02:28S 29°53' E 031°03'0 0.0
2018-Jun-10 01:58S 29°53' E 031°03'0 0.0
2018-Jun-10 01:28S 29°53' E 031°03'0 0.0
2018-Jun-10 00:58S 29°53' E 031°03'0 0.0
2018-Jun-10 00:28S 29°53' E 031°03'0 0.0
2018-Jun-09 23:58S 29°53' E 031°03'0 0.0
2018-Jun-09 23:28S 29°53' E 031°03'0 0.0
2018-Jun-09 22:58S 29°53' E 031°03'0 0.0
2018-Jun-09 22:28S 29°53' E 031°03'0 0.0
2018-Jun-09 21:58S 29°53' E 031°03'0 0.0
2018-Jun-09 21:28S 29°53' E 031°03'0 0.0
2018-Jun-09 20:58S 29°53' E 031°03'0 0.0
2018-Jun-09 20:28S 29°53' E 031°03'0 0.0
2018-Jun-09 19:58S 29°53' E 031°03'0 0.0
2018-Jun-09 19:28S 29°53' E 031°03'0 0.0
2018-Jun-09 18:58S 29°53' E 031°03'0 0.0
2018-Jun-09 18:28S 29°53' E 031°03'0 0.0
2018-Jun-09 17:58S 29°53' E 031°03'0 0.0
2018-Jun-09 17:28S 29°53' E 031°03'0 0.0
2018-Jun-09 16:58S 29°53' E 031°03'0 0.0
2018-Jun-09 16:28S 29°53' E 031°03'0 0.0
2018-Jun-09 15:58S 29°53' E 031°03'0 0.0
2018-Jun-09 15:28S 29°53' E 031°03'0 0.0
2018-Jun-09 14:28S 29°53' E 031°03'0 0.0
2018-Jun-09 13:58S 29°53' E 031°03'0 0.0
2018-Jun-09 13:28S 29°53' E 031°03'0 0.0
2018-Jun-09 12:58S 29°53' E 031°03'0 0.0
2018-Jun-09 12:28S 29°53' E 031°03'0 0.0
2018-Jun-09 11:58S 29°53' E 031°03'0 0.0
2018-Jun-09 11:28S 29°53' E 031°03'0 0.0
2018-Jun-09 10:58S 29°53' E 031°03'0 0.0
2018-Jun-09 10:28S 29°53' E 031°03'0 0.0
2018-Jun-09 09:58S 29°53' E 031°03'0 0.0
2018-Jun-09 09:28S 29°53' E 031°03'0 0.0
2018-Jun-09 08:55S 29°53' E 031°03'0 0.0
2018-Jun-09 08:28S 29°53' E 031°03'0 0.0
2018-Jun-09 07:58S 29°53' E 031°03'0 0.0
2018-Jun-09 07:28S 29°53' E 031°03'0 0.0
2018-Jun-09 06:58S 29°53' E 031°03'0 0.0
2018-Jun-09 06:28S 29°53' E 031°03'0 0.0
2018-Jun-09 05:58S 29°53' E 031°03'0 0.0
2018-Jun-09 05:25S 29°53' E 031°03'0 0.0
2018-Jun-09 04:58S 29°53' E 031°03'0 0.0
2018-Jun-09 04:28S 29°53' E 031°03'0 0.0
2018-Jun-09 03:58S 29°53' E 031°03'0 0.0
2018-Jun-09 03:28S 29°53' E 031°03'0 0.0
2018-Jun-09 02:58S 29°53' E 031°03'0 0.0
2018-Jun-09 02:28S 29°53' E 031°03'0 0.0
2018-Jun-09 01:58S 29°53' E 031°03'0 0.0
2018-Jun-09 01:28S 29°53' E 031°03'0 0.0
2018-Jun-09 00:58S 29°53' E 031°03'0 0.0
2018-Jun-09 00:28S 29°53' E 031°03'0 0.0
2018-Jun-08 23:58S 29°53' E 031°03'0 0.0
2018-Jun-08 23:28S 29°53' E 031°03'0 0.0
2018-Jun-08 22:58S 29°53' E 031°03'0 0.0
2018-Jun-08 22:28S 29°53' E 031°03'0 0.0
2018-Jun-08 21:58S 29°53' E 031°03'0 0.0
2018-Jun-08 21:28S 29°53' E 031°03'0 0.0
2018-Jun-08 20:52S 29°53' E 031°03'0 0.0
2018-Jun-08 20:28S 29°53' E 031°03'0 0.0
2018-Jun-08 19:58S 29°53' E 031°03'0 0.0
2018-Jun-08 19:28S 29°53' E 031°03'0 0.1
2018-Jun-08 19:00S 29°53' E 031°03'1 2.4
2018-Jun-08 18:31S 29°52' E 031°02'0 0.5
2018-Jun-08 18:00S 29°52' E 031°02'0 0.0
2018-Jun-08 17:27S 29°52' E 031°02'0 0.0
2018-Jun-08 17:00S 29°52' E 031°02'0 0.0
2018-Jun-08 16:30S 29°52' E 031°02'0 0.0
2018-Jun-08 16:00S 29°52' E 031°02'0 0.0
2018-Jun-08 15:30S 29°52' E 031°02'0 0.0
2018-Jun-08 14:57S 29°52' E 031°02'0 0.0
2018-Jun-08 14:30S 29°52' E 031°02'0 0.0
2018-Jun-08 14:00S 29°52' E 031°02'0 0.0
2018-Jun-08 13:30S 29°52' E 031°02'0 0.0
2018-Jun-08 13:00S 29°52' E 031°02'0 0.0
2018-Jun-08 12:30S 29°52' E 031°02'0 0.0
2018-Jun-08 12:00S 29°52' E 031°02'0 0.0
2018-Jun-08 11:30S 29°52' E 031°02'0 0.0
2018-Jun-08 11:00S 29°52' E 031°02'0 0.0
2018-Jun-08 10:30S 29°52' E 031°02'0 0.0
2018-Jun-08 10:00S 29°52' E 031°02'0 0.0
2018-Jun-08 09:30S 29°52' E 031°02'0 0.0
2018-Jun-08 09:00S 29°52' E 031°02'0 0.0
2018-Jun-08 08:30S 29°52' E 031°02'0 0.0
2018-Jun-08 08:00S 29°52' E 031°02'0 0.0
2018-Jun-08 07:30S 29°52' E 031°02'0 0.0
2018-Jun-08 07:00S 29°52' E 031°02'0 0.0
2018-Jun-08 06:30S 29°52' E 031°02'0 0.0
2018-Jun-08 06:00S 29°52' E 031°02'0 0.0
2018-Jun-08 05:27S 29°52' E 031°02'0 0.0
2018-Jun-08 05:00S 29°52' E 031°02'0 0.0
2018-Jun-08 04:30S 29°52' E 031°02'0 0.0
2018-Jun-08 04:00S 29°52' E 031°02'0 0.0
2018-Jun-08 03:30S 29°52' E 031°02'0 0.0
2018-Jun-08 03:00S 29°52' E 031°02'0 0.0
2018-Jun-08 02:30S 29°52' E 031°02'0 0.0
2018-Jun-08 02:00S 29°52' E 031°02'0 0.0
2018-Jun-08 01:30S 29°52' E 031°02'0 0.0
2018-Jun-08 01:00S 29°52' E 031°02'0 0.0
2018-Jun-08 00:30S 29°52' E 031°02'0 0.0
2018-Jun-08 00:00S 29°52' E 031°02'0 0.0
2018-Jun-07 23:30S 29°52' E 031°02'0 0.0
2018-Jun-07 23:00S 29°52' E 031°02'0 0.0
2018-Jun-07 22:30S 29°52' E 031°02'0 0.0
2018-Jun-07 22:00S 29°52' E 031°02'0 0.0
2018-Jun-07 21:30S 29°52' E 031°02'0 0.0
2018-Jun-07 20:57S 29°52' E 031°02'0 0.0
2018-Jun-07 20:30S 29°52' E 031°02'0 0.0
2018-Jun-07 20:00S 29°52' E 031°02'0 0.0
2018-Jun-07 19:30S 29°52' E 031°02'0 0.0
2018-Jun-07 19:00S 29°52' E 031°02'0 0.0
2018-Jun-07 18:30S 29°52' E 031°02'0 0.0
2018-Jun-07 18:00S 29°52' E 031°02'0 0.0
2018-Jun-07 17:30S 29°52' E 031°02'0 0.0
2018-Jun-07 17:00S 29°52' E 031°02'0 0.0
2018-Jun-07 16:30S 29°52' E 031°02'0 0.0
2018-Jun-07 16:00S 29°52' E 031°02'0 0.0
2018-Jun-07 15:30S 29°52' E 031°02'0 0.0
2018-Jun-07 15:00S 29°52' E 031°02'0 0.0
2018-Jun-07 14:27S 29°52' E 031°02'0 0.0
2018-Jun-07 13:57S 29°52' E 031°02'0 0.0
2018-Jun-07 13:30S 29°52' E 031°02'0 0.0
2018-Jun-07 13:00S 29°52' E 031°02'0 0.0
2018-Jun-07 12:30S 29°52' E 031°02'0 0.0
2018-Jun-07 12:00S 29°52' E 031°02'0 0.0
2018-Jun-07 11:30S 29°52' E 031°02'0 0.0
2018-Jun-07 11:00S 29°52' E 031°02'0 0.0
2018-Jun-07 10:30S 29°52' E 031°02'0 0.0
2018-Jun-07 10:00S 29°52' E 031°02'0 0.0
2018-Jun-07 09:30S 29°52' E 031°02'0 0.0
2018-Jun-07 09:00S 29°52' E 031°02'0 0.0
2018-Jun-07 08:27S 29°52' E 031°02'0 0.0
2018-Jun-07 08:00S 29°52' E 031°02'0 0.0
2018-Jun-07 07:30S 29°52' E 031°02'0 0.0
2018-Jun-07 07:00S 29°52' E 031°02'0 0.0
2018-Jun-07 06:30S 29°52' E 031°02'0 0.0
2018-Jun-07 06:00S 29°52' E 031°02'0 0.0
2018-Jun-07 05:30S 29°52' E 031°02'0 0.0
2018-Jun-07 05:00S 29°52' E 031°02'0 0.0
2018-Jun-07 04:27S 29°52' E 031°02'0 0.0
2018-Jun-07 04:00S 29°52' E 031°02'0 0.0
2018-Jun-07 03:30S 29°52' E 031°02'0 0.0
2018-Jun-07 03:00S 29°52' E 031°02'0 0.0
2018-Jun-07 02:30S 29°52' E 031°02'0 0.0
2018-Jun-07 02:00S 29°52' E 031°02'0 0.0
2018-Jun-07 01:30S 29°52' E 031°02'0 0.0
2018-Jun-07 01:00S 29°52' E 031°02'0 0.0
2018-Jun-07 00:30S 29°52' E 031°02'0 0.0
2018-Jun-07 00:00S 29°52' E 031°02'0 0.0
2018-Jun-06 23:30S 29°52' E 031°02'0 0.0
2018-Jun-06 23:00S 29°52' E 031°02'0 0.0
2018-Jun-06 22:30S 29°52' E 031°02'0 0.0
2018-Jun-06 22:00S 29°52' E 031°02'0 0.0
2018-Jun-06 21:30S 29°52' E 031°02'0 0.0
2018-Jun-06 21:00S 29°52' E 031°02'0 0.0
2018-Jun-06 20:30S 29°52' E 031°02'0 0.0
2018-Jun-06 20:00S 29°52' E 031°02'0 0.0
2018-Jun-06 19:30S 29°52' E 031°02'0 0.0
2018-Jun-06 19:00S 29°52' E 031°02'0 0.0
2018-Jun-06 18:30S 29°52' E 031°02'0 0.0
2018-Jun-06 18:00S 29°52' E 031°02'0 0.0
2018-Jun-06 17:30S 29°52' E 031°02'0 0.0
2018-Jun-06 17:00S 29°52' E 031°02'0 0.0
2018-Jun-06 16:30S 29°52' E 031°02'0 0.0
2018-Jun-06 16:00S 29°52' E 031°02'0 0.0
2018-Jun-06 15:30S 29°52' E 031°02'0 0.0
2018-Jun-06 15:00S 29°52' E 031°02'0 0.0
2018-Jun-06 14:30S 29°52' E 031°02'0 0.0
2018-Jun-06 14:00S 29°52' E 031°02'0 0.0
2018-Jun-06 13:30S 29°52' E 031°02'0 0.0
2018-Jun-06 13:00S 29°52' E 031°02'0 0.0
2018-Jun-06 12:30S 29°52' E 031°02'0 0.0
2018-Jun-06 12:00S 29°52' E 031°02'0 0.0
2018-Jun-06 11:30S 29°52' E 031°02'0 0.0
2018-Jun-06 11:00S 29°52' E 031°02'0 0.0
2018-Jun-06 10:30S 29°52' E 031°02'0 0.0
2018-Jun-06 10:00S 29°52' E 031°02'0 0.0
2018-Jun-06 09:27S 29°52' E 031°02'0 0.0
2018-Jun-06 08:54S 29°52' E 031°02'0 0.0
2018-Jun-06 08:30S 29°52' E 031°02'0 0.0
2018-Jun-06 08:00S 29°52' E 031°02'0 0.0
2018-Jun-06 07:30S 29°52' E 031°02'0 0.0
2018-Jun-06 07:00S 29°52' E 031°02'0 0.0
2018-Jun-06 06:30S 29°52' E 031°02'0 0.0
2018-Jun-06 06:00S 29°52' E 031°02'0 0.0
2018-Jun-06 05:30S 29°52' E 031°02'0 0.0
2018-Jun-06 05:00S 29°52' E 031°02'0 0.0
2018-Jun-06 04:30S 29°52' E 031°02'0 0.0
2018-Jun-06 04:00S 29°52' E 031°02'0 0.0
2018-Jun-06 03:30S 29°52' E 031°02'0 0.0
2018-Jun-06 03:00S 29°52' E 031°02'0 0.0
2018-Jun-06 02:30S 29°52' E 031°02'0 0.0
2018-Jun-06 02:00S 29°52' E 031°02'0 0.0
2018-Jun-06 01:30S 29°52' E 031°02'0 0.0
2018-Jun-06 01:00S 29°52' E 031°02'0 0.0
2018-Jun-06 00:30S 29°52' E 031°02'0 0.0
2018-Jun-06 00:00S 29°52' E 031°02'0 0.0
2018-Jun-05 23:30S 29°52' E 031°02'0 0.0
2018-Jun-05 23:00S 29°52' E 031°02'0 0.0
2018-Jun-05 22:30S 29°52' E 031°02'1 2.1
2018-Jun-05 22:00S 29°53' E 031°03'0 0.8
2018-Jun-05 21:30S 29°53' E 031°03'0 0.0
2018-Jun-05 20:58S 29°53' E 031°03'0 0.0
2018-Jun-05 20:28S 29°53' E 031°03'0 0.0
2018-Jun-05 19:58S 29°53' E 031°03'0 0.0
2018-Jun-05 19:28S 29°53' E 031°03'0 0.0
2018-Jun-05 18:55S 29°53' E 031°03'0 0.0
2018-Jun-05 18:28S 29°53' E 031°03'0 0.0
2018-Jun-05 17:58S 29°53' E 031°03'0 0.0
2018-Jun-05 17:28S 29°53' E 031°03'0 0.0
2018-Jun-05 16:58S 29°53' E 031°03'0 0.0
2018-Jun-05 16:28S 29°53' E 031°03'0 0.0
2018-Jun-05 15:58S 29°53' E 031°03'0 0.0
2018-Jun-05 15:28S 29°53' E 031°03'0 0.0
2018-Jun-05 14:58S 29°53' E 031°03'0 0.0
2018-Jun-05 14:28S 29°53' E 031°03'0 0.0
2018-Jun-05 13:58S 29°53' E 031°03'0 0.0
2018-Jun-05 13:28S 29°53' E 031°03'0 0.0
2018-Jun-05 12:58S 29°53' E 031°03'0 0.0
2018-Jun-05 12:28S 29°53' E 031°03'0 0.0
2018-Jun-05 11:58S 29°53' E 031°03'0 0.0
2018-Jun-05 11:28S 29°53' E 031°03'0 0.0
2018-Jun-05 10:55S 29°53' E 031°03'0 0.0
2018-Jun-05 10:28S 29°53' E 031°03'0 0.0
2018-Jun-05 09:58S 29°53' E 031°03'0 0.0
2018-Jun-05 09:28S 29°53' E 031°03'0 0.0
2018-Jun-05 08:58S 29°53' E 031°03'0 0.0
2018-Jun-05 08:28S 29°53' E 031°03'0 0.0
2018-Jun-05 07:58S 29°53' E 031°03'0 0.0
2018-Jun-05 07:28S 29°53' E 031°03'0 0.0
2018-Jun-05 06:58S 29°53' E 031°03'0 0.0
2018-Jun-05 06:28S 29°53' E 031°03'0 0.0
2018-Jun-05 05:58S 29°53' E 031°03'0 0.0
2018-Jun-05 05:28S 29°53' E 031°03'0 0.0
2018-Jun-05 04:55S 29°53' E 031°03'0 0.0
2018-Jun-05 04:28S 29°53' E 031°03'0 0.0
2018-Jun-05 03:58S 29°53' E 031°03'0 0.0
2018-Jun-05 03:28S 29°53' E 031°03'0 0.0
2018-Jun-05 02:58S 29°53' E 031°03'0 0.0
2018-Jun-05 02:28S 29°53' E 031°03'0 0.0
2018-Jun-05 01:58S 29°53' E 031°03'0 0.0
2018-Jun-05 01:28S 29°53' E 031°03'0 0.0
2018-Jun-05 00:58S 29°53' E 031°03'0 0.0
2018-Jun-05 00:28S 29°53' E 031°03'0 0.0
2018-Jun-04 23:58S 29°53' E 031°03'0 0.0
2018-Jun-04 23:28S 29°53' E 031°03'0 0.0
2018-Jun-04 22:58S 29°53' E 031°03'0 0.0
2018-Jun-04 22:28S 29°53' E 031°03'0 0.0
2018-Jun-04 21:58S 29°53' E 031°03'0 0.0
2018-Jun-04 21:28S 29°53' E 031°03'0 0.0
2018-Jun-04 20:58S 29°53' E 031°03'0 0.0
2018-Jun-04 20:28S 29°53' E 031°03'0 0.0
2018-Jun-04 19:58S 29°53' E 031°03'0 0.0
2018-Jun-04 19:28S 29°53' E 031°03'0 0.0
2018-Jun-04 18:58S 29°53' E 031°03'0 0.0
2018-Jun-04 18:28S 29°53' E 031°03'0 0.0
2018-Jun-04 17:58S 29°53' E 031°03'0 0.0
2018-Jun-04 17:28S 29°53' E 031°03'0 0.0
2018-Jun-04 16:58S 29°53' E 031°03'0 0.0
2018-Jun-04 16:28S 29°53' E 031°03'0 0.0
2018-Jun-04 15:58S 29°53' E 031°03'0 0.0
2018-Jun-04 15:28S 29°53' E 031°03'0 0.0
2018-Jun-04 14:58S 29°53' E 031°03'0 0.0
2018-Jun-04 14:28S 29°53' E 031°03'0 0.0
2018-Jun-04 13:58S 29°53' E 031°03'0 0.0
2018-Jun-04 13:28S 29°53' E 031°03'0 0.0
2018-Jun-04 12:58S 29°53' E 031°03'0 0.0
2018-Jun-04 12:28S 29°53' E 031°03'0 0.0
2018-Jun-04 11:55S 29°53' E 031°03'0 0.2
2018-Jun-04 11:28S 29°53' E 031°03'0 0.2
2018-Jun-04 10:58S 29°53' E 031°03'0 0.0
2018-Jun-04 10:25S 29°53' E 031°03'0 0.0
2018-Jun-04 09:58S 29°53' E 031°03'0 0.0
2018-Jun-04 09:25S 29°53' E 031°03'0 0.0
2018-Jun-04 08:58S 29°53' E 031°03'0 0.0
2018-Jun-04 08:28S 29°53' E 031°03'0 0.0
2018-Jun-04 07:58S 29°53' E 031°03'0 0.0
2018-Jun-04 07:28S 29°53' E 031°03'0 0.0
2018-Jun-04 06:58S 29°53' E 031°03'0 0.0
2018-Jun-04 06:28S 29°53' E 031°03'0 0.0
2018-Jun-04 05:52S 29°53' E 031°03'0 0.0
2018-Jun-04 05:28S 29°53' E 031°03'0 0.0
2018-Jun-04 04:58S 29°53' E 031°03'0 0.0
2018-Jun-04 04:28S 29°53' E 031°03'0 0.0
2018-Jun-04 03:58S 29°53' E 031°03'0 0.0
2018-Jun-04 03:28S 29°53' E 031°03'0 0.0
2018-Jun-04 02:58S 29°53' E 031°03'0 0.0
2018-Jun-04 02:25S 29°53' E 031°03'0 0.0
2018-Jun-04 01:58S 29°53' E 031°03'0 0.0
2018-Jun-04 01:25S 29°53' E 031°03'0 0.0
2018-Jun-04 00:58S 29°53' E 031°03'0 0.0
2018-Jun-04 00:28S 29°53' E 031°03'0 0.0
2018-Jun-03 23:58S 29°53' E 031°03'0 0.0
2018-Jun-03 23:28S 29°53' E 031°03'0 0.0
2018-Jun-03 22:58S 29°53' E 031°03'0 0.0
2018-Jun-03 22:28S 29°53' E 031°03'0 0.0
2018-Jun-03 21:58S 29°53' E 031°03'0 0.0
2018-Jun-03 21:28S 29°53' E 031°03'0 0.0
2018-Jun-03 20:58S 29°53' E 031°03'0 0.0
2018-Jun-03 20:30S 29°53' E 031°03'0 0.9
2018-Jun-03 20:00S 29°53' E 031°03'1 1.4
2018-Jun-03 19:30S 29°52' E 031°03'4 7.7
2018-Jun-03 19:00S 29°49' E 031°05'4 7.1
2018-Jun-03 18:31S 29°48' E 031°09'2 4.8
2018-Jun-03 18:00S 29°46' E 031°08'0 0.9
2018-Jun-03 17:30S 29°46' E 031°07'0 0.7
2018-Jun-03 17:00S 29°46' E 031°08'0 0.2
2018-Jun-03 16:28S 29°46' E 031°08'0 0.0
2018-Jun-03 15:58S 29°46' E 031°08'0 0.0
2018-Jun-03 15:28S 29°46' E 031°08'0 0.0
2018-Jun-03 14:58S 29°46' E 031°08'0 0.0
2018-Jun-03 14:28S 29°46' E 031°08'0 0.0
2018-Jun-03 13:58S 29°46' E 031°08'0 0.0
2018-Jun-03 13:28S 29°46' E 031°08'0 0.0
2018-Jun-03 12:58S 29°46' E 031°08'0 0.0
2018-Jun-03 12:28S 29°46' E 031°08'0 0.1
2018-Jun-03 11:58S 29°46' E 031°07'0 0.0
2018-Jun-03 11:28S 29°46' E 031°07'0 0.0
2018-Jun-03 10:58S 29°46' E 031°08'0 0.0
2018-Jun-03 10:28S 29°46' E 031°08'0 0.0
2018-Jun-03 09:58S 29°46' E 031°07'0 0.0
2018-Jun-03 09:28S 29°46' E 031°07'0 0.1
2018-Jun-03 08:58S 29°46' E 031°08'0 0.0
2018-Jun-03 08:28S 29°46' E 031°08'0 0.0
2018-Jun-03 07:58S 29°46' E 031°07'0 0.1
2018-Jun-03 07:28S 29°46' E 031°07'0 0.1
2018-Jun-03 06:58S 29°46' E 031°07'0 0.1
2018-Jun-03 06:28S 29°46' E 031°07'0 0.1
2018-Jun-03 05:58S 29°46' E 031°07'0 0.1
2018-Jun-03 05:25S 29°46' E 031°07'0 0.1
2018-Jun-03 04:58S 29°46' E 031°07'0 0.0
2018-Jun-03 04:28S 29°46' E 031°07'0 0.0
2018-Jun-03 03:58S 29°46' E 031°07'0 0.0
2018-Jun-03 03:22S 29°46' E 031°07'0 0.0
2018-Jun-03 02:58S 29°46' E 031°07'0 0.0
2018-Jun-03 02:28S 29°46' E 031°07'0 0.0
2018-Jun-03 01:58S 29°46' E 031°07'0 0.1
2018-Jun-03 01:28S 29°46' E 031°07'0 0.0
2018-Jun-03 00:58S 29°46' E 031°07'0 0.0
2018-Jun-03 00:28S 29°46' E 031°07'0 0.1
2018-Jun-02 23:58S 29°46' E 031°07'0 0.0
2018-Jun-02 23:28S 29°46' E 031°07'0 0.0
2018-Jun-02 22:55S 29°46' E 031°07'0 0.1
2018-Jun-02 22:28S 29°46' E 031°07'0 0.0
2018-Jun-02 21:58S 29°46' E 031°07'0 0.1
2018-Jun-02 21:28S 29°46' E 031°07'0 0.0
2018-Jun-02 20:58S 29°46' E 031°07'0 0.0
2018-Jun-02 20:28S 29°46' E 031°07'0 0.0
2018-Jun-02 19:58S 29°46' E 031°07'0 0.0
2018-Jun-02 19:28S 29°46' E 031°07'0 0.0
2018-Jun-02 18:58S 29°46' E 031°07'0 0.0
2018-Jun-02 18:28S 29°46' E 031°07'0 0.1
2018-Jun-02 17:58S 29°46' E 031°07'0 0.1
2018-Jun-02 17:28S 29°46' E 031°07'0 0.0
2018-Jun-02 16:58S 29°46' E 031°07'0 0.0
2018-Jun-02 16:25S 29°46' E 031°07'0 0.0
2018-Jun-02 15:58S 29°46' E 031°07'  
Track history (hours):
 
Tides and Currents Weather Stations Pressure Air Temp Water Temp Dewpoint Dewpoint Depression Visibility Wind Speed Wind Dir Waves Ship Positions

Nord Explorer

Last reported at 2018-Jun-12 15:33 UTC. Time now 2018-Jun-23 06:28 UTC.
Position S 29°28' E 032°46'.
Warning: this ship's position is 10 days out of date.

Length 190 m; draft 6.2 m.

Type: Cargo ship. MMSI: 370687000.

Date/timePositionNaut miles runAvg speedWind from/ knotsBaromVisibWave heightAir tempDewpointWater temp
2018-Jun-12 15:33S 29°28' E 032°46'210.4
2018-Jun-12 15:21S 29°29' E 032°43'410.3
2018-Jun-12 15:00S 29°30' E 032°39'1010.1
2018-Jun-12 13:58S 29°32' E 032°28'510.2
2018-Jun-12 13:29S 29°33' E 032°22'510.3
2018-Jun-12 13:01S 29°34' E 032°17'510.1
2018-Jun-12 12:31S 29°36' E 032°11'5 9.8
2018-Jun-12 12:01S 29°37' E 032°06'5 9.5
2018-Jun-12 11:30S 29°38' E 032°00'5 9.4
2018-Jun-12 11:01S 29°39' E 031°55'5 9.4
2018-Jun-12 10:31S 29°40' E 031°50'5 9.5
2018-Jun-12 10:01S 29°42' E 031°45'5 9.6
2018-Jun-12 09:30S 29°43' E 031°39'510.8
2018-Jun-12 09:01S 29°44' E 031°33'611.5
2018-Jun-12 08:31S 29°46' E 031°27'611.7
2018-Jun-12 08:00S 29°47' E 031°20'611.8
2018-Jun-12 07:30S 29°49' E 031°14'611.4
2018-Jun-12 07:01S 29°50' E 031°07'4 8.5
2018-Jun-12 06:31S 29°52' E 031°03'1 1.9
2018-Jun-12 06:01S 29°53' E 031°03'0 0.1
2018-Jun-12 05:31S 29°53' E 031°03'0 0.0
2018-Jun-12 04:58S 29°53' E 031°03'0 0.0
2018-Jun-12 04:28S 29°53' E 031°03'0 0.0
2018-Jun-12 03:58S 29°53' E 031°03'0 0.0
2018-Jun-12 03:28S 29°53' E 031°03'0 0.0
2018-Jun-12 02:58S 29°53' E 031°03'0 0.0
2018-Jun-12 02:28S 29°53' E 031°03'0 0.0
2018-Jun-12 01:55S 29°53' E 031°03'0 0.0
2018-Jun-12 01:28S 29°53' E 031°03'0 0.0
2018-Jun-12 00:58S 29°53' E 031°03'0 0.0
2018-Jun-12 00:28S 29°53' E 031°03'0 0.0
2018-Jun-11 23:58S 29°53' E 031°03'0 0.0
2018-Jun-11 23:28S 29°53' E 031°03'0 0.0
2018-Jun-11 22:58S 29°53' E 031°03'0 0.0
2018-Jun-11 22:28S 29°53' E 031°03'0 0.0
2018-Jun-11 21:58S 29°53' E 031°03'0 0.0
2018-Jun-11 21:28S 29°53' E 031°03'0 0.0
2018-Jun-11 20:58S 29°53' E 031°03'0 0.0
2018-Jun-11 20:28S 29°53' E 031°03'0 0.0
2018-Jun-11 19:58S 29°53' E 031°03'0 0.0
2018-Jun-11 19:28S 29°53' E 031°03'0 0.0
2018-Jun-11 18:58S 29°53' E 031°03'0 0.0
2018-Jun-11 18:28S 29°53' E 031°03'0 0.0
2018-Jun-11 17:58S 29°53' E 031°03'0 0.0
2018-Jun-11 17:28S 29°53' E 031°03'0 0.0
2018-Jun-11 16:58S 29°53' E 031°03'0 0.0
2018-Jun-11 16:28S 29°53' E 031°03'0 0.0
2018-Jun-11 15:58S 29°53' E 031°03'0 0.0
2018-Jun-11 15:28S 29°53' E 031°03'0 0.0
2018-Jun-11 14:58S 29°53' E 031°03'0 0.0
2018-Jun-11 14:28S 29°53' E 031°03'0 0.0
2018-Jun-11 13:58S 29°53' E 031°03'0 0.0
2018-Jun-11 13:28S 29°53' E 031°03'0 0.0
2018-Jun-11 12:58S 29°53' E 031°03'0 0.0
2018-Jun-11 12:25S 29°53' E 031°03'0 0.0
2018-Jun-11 11:58S 29°53' E 031°03'0 0.0
2018-Jun-11 11:28S 29°53' E 031°03'0 0.0
2018-Jun-11 10:58S 29°53' E 031°03'0 0.0
2018-Jun-11 10:28S 29°53' E 031°03'0 0.0
2018-Jun-11 09:58S 29°53' E 031°03'0 0.0
2018-Jun-11 09:28S 29°53' E 031°03'0 0.0
2018-Jun-11 08:58S 29°53' E 031°03'0 0.0
2018-Jun-11 08:28S 29°53' E 031°03'0 0.0
2018-Jun-11 07:58S 29°53' E 031°03'0 0.0
2018-Jun-11 07:25S 29°53' E 031°03'0 0.0
2018-Jun-11 06:58S 29°53' E 031°03'0 0.0
2018-Jun-11 06:28S 29°53' E 031°03'0 0.0
2018-Jun-11 05:58S 29°53' E 031°03'0 0.0
2018-Jun-11 05:28S 29°53' E 031°03'0 0.0
2018-Jun-11 04:58S 29°53' E 031°03'0 0.0
2018-Jun-11 04:25S 29°53' E 031°03'0 0.0
2018-Jun-11 03:58S 29°53' E 031°03'0 0.0
2018-Jun-11 03:28S 29°53' E 031°03'0 0.0
2018-Jun-11 02:55S 29°53' E 031°03'0 0.2
2018-Jun-11 02:25S 29°53' E 031°02'0 0.2
2018-Jun-11 01:58S 29°53' E 031°03'0 0.0
2018-Jun-11 01:25S 29°53' E 031°03'0 0.0
2018-Jun-11 00:58S 29°53' E 031°03'0 0.0
2018-Jun-11 00:25S 29°53' E 031°03'0 0.0
2018-Jun-10 23:58S 29°53' E 031°03'0 0.0
2018-Jun-10 23:28S 29°53' E 031°03'0 0.0
2018-Jun-10 22:58S 29°53' E 031°03'0 0.0
2018-Jun-10 22:28S 29°53' E 031°03'0 0.0
2018-Jun-10 21:58S 29°53' E 031°03'0 0.0
2018-Jun-10 21:28S 29°53' E 031°03'0 0.0
2018-Jun-10 20:58S 29°53' E 031°03'0 0.0
2018-Jun-10 20:28S 29°53' E 031°03'0 0.0
2018-Jun-10 19:58S 29°53' E 031°03'0 0.0
2018-Jun-10 19:28S 29°53' E 031°03'0 0.0
2018-Jun-10 18:58S 29°53' E 031°03'0 0.0
2018-Jun-10 18:28S 29°53' E 031°03'0 0.0
2018-Jun-10 17:58S 29°53' E 031°03'0 0.0
2018-Jun-10 17:28S 29°53' E 031°03'0 0.0
2018-Jun-10 16:58S 29°53' E 031°03'0 0.0
2018-Jun-10 16:28S 29°53' E 031°03'0 0.0
2018-Jun-10 15:58S 29°53' E 031°03'0 0.0
2018-Jun-10 15:28S 29°53' E 031°03'0 0.0
2018-Jun-10 14:58S 29°53' E 031°03'0 0.0
2018-Jun-10 13:58S 29°53' E 031°03'0 0.0
2018-Jun-10 13:28S 29°53' E 031°03'0 0.0
2018-Jun-10 12:58S 29°53' E 031°03'0 0.0
2018-Jun-10 12:28S 29°53' E 031°03'0 0.0
2018-Jun-10 11:58S 29°53' E 031°03'0 0.0
2018-Jun-10 11:28S 29°53' E 031°03'0 0.0
2018-Jun-10 10:58S 29°53' E 031°03'0 0.0
2018-Jun-10 10:25S 29°53' E 031°03'0 0.0
2018-Jun-10 09:58S 29°53' E 031°03'0 0.0
2018-Jun-10 09:28S 29°53' E 031°03'0 0.0
2018-Jun-10 08:58S 29°53' E 031°03'0 0.0
2018-Jun-10 08:28S 29°53' E 031°03'0 0.0
2018-Jun-10 07:58S 29°53' E 031°03'0 0.0
2018-Jun-10 07:28S 29°53' E 031°03'0 0.0
2018-Jun-10 06:58S 29°53' E 031°03'0 0.0
2018-Jun-10 06:28S 29°53' E 031°03'0 0.0
2018-Jun-10 05:58S 29°53' E 031°03'0 0.0
2018-Jun-10 05:28S 29°53' E 031°03'0 0.0
2018-Jun-10 04:58S 29°53' E 031°03'0 0.0
2018-Jun-10 04:28S 29°53' E 031°03'0 0.0
2018-Jun-10 03:58S 29°53' E 031°03'0 0.0
2018-Jun-10 03:28S 29°53' E 031°03'0 0.0
2018-Jun-10 02:58S 29°53' E 031°03'0 0.0
2018-Jun-10 02:28S 29°53' E 031°03'0 0.0
2018-Jun-10 01:58S 29°53' E 031°03'0 0.0
2018-Jun-10 01:28S 29°53' E 031°03'0 0.0
2018-Jun-10 00:58S 29°53' E 031°03'0 0.0
2018-Jun-10 00:28S 29°53' E 031°03'0 0.0
2018-Jun-09 23:58S 29°53' E 031°03'0 0.0
2018-Jun-09 23:28S 29°53' E 031°03'0 0.0
2018-Jun-09 22:58S 29°53' E 031°03'0 0.0
2018-Jun-09 22:28S 29°53' E 031°03'0 0.0
2018-Jun-09 21:58S 29°53' E 031°03'0 0.0
2018-Jun-09 21:28S 29°53' E 031°03'0 0.0
2018-Jun-09 20:58S 29°53' E 031°03'0 0.0
2018-Jun-09 20:28S 29°53' E 031°03'0 0.0
2018-Jun-09 19:58S 29°53' E 031°03'0 0.0
2018-Jun-09 19:28S 29°53' E 031°03'0 0.0
2018-Jun-09 18:58S 29°53' E 031°03'0 0.0
2018-Jun-09 18:28S 29°53' E 031°03'0 0.0
2018-Jun-09 17:58S 29°53' E 031°03'0 0.0
2018-Jun-09 17:28S 29°53' E 031°03'0 0.0
2018-Jun-09 16:58S 29°53' E 031°03'0 0.0
2018-Jun-09 16:28S 29°53' E 031°03'0 0.0
2018-Jun-09 15:58S 29°53' E 031°03'0 0.0
2018-Jun-09 15:28S 29°53' E 031°03'0 0.0
2018-Jun-09 14:28S 29°53' E 031°03'0 0.0
2018-Jun-09 13:58S 29°53' E 031°03'0 0.0
2018-Jun-09 13:28S 29°53' E 031°03'0 0.0
2018-Jun-09 12:58S 29°53' E 031°03'0 0.0
2018-Jun-09 12:28S 29°53' E 031°03'0 0.0
2018-Jun-09 11:58S 29°53' E 031°03'0 0.0
2018-Jun-09 11:28S 29°53' E 031°03'0 0.0
2018-Jun-09 10:58S 29°53' E 031°03'0 0.0
2018-Jun-09 10:28S 29°53' E 031°03'0 0.0
2018-Jun-09 09:58S 29°53' E 031°03'0 0.0
2018-Jun-09 09:28S 29°53' E 031°03'0 0.0
2018-Jun-09 08:55S 29°53' E 031°03'0 0.0
2018-Jun-09 08:28S 29°53' E 031°03'0 0.0
2018-Jun-09 07:58S 29°53' E 031°03'0 0.0
2018-Jun-09 07:28S 29°53' E 031°03'0 0.0
2018-Jun-09 06:58S 29°53' E 031°03'0 0.0
2018-Jun-09 06:28S 29°53' E 031°03'0 0.0
2018-Jun-09 05:58S 29°53' E 031°03'0 0.0
2018-Jun-09 05:25S 29°53' E 031°03'0 0.0
2018-Jun-09 04:58S 29°53' E 031°03'0 0.0
2018-Jun-09 04:28S 29°53' E 031°03'0 0.0
2018-Jun-09 03:58S 29°53' E 031°03'0 0.0
2018-Jun-09 03:28S 29°53' E 031°03'0 0.0
2018-Jun-09 02:58S 29°53' E 031°03'0 0.0
2018-Jun-09 02:28S 29°53' E 031°03'0 0.0
2018-Jun-09 01:58S 29°53' E 031°03'0 0.0
2018-Jun-09 01:28S 29°53' E 031°03'0 0.0
2018-Jun-09 00:58S 29°53' E 031°03'0 0.0
2018-Jun-09 00:28S 29°53' E 031°03'0 0.0
2018-Jun-08 23:58S 29°53' E 031°03'0 0.0
2018-Jun-08 23:28S 29°53' E 031°03'0 0.0
2018-Jun-08 22:58S 29°53' E 031°03'0 0.0
2018-Jun-08 22:28S 29°53' E 031°03'0 0.0
2018-Jun-08 21:58S 29°53' E 031°03'0 0.0
2018-Jun-08 21:28S 29°53' E 031°03'0 0.0
2018-Jun-08 20:52S 29°53' E 031°03'0 0.0
2018-Jun-08 20:28S 29°53' E 031°03'0 0.0
2018-Jun-08 19:58S 29°53' E 031°03'0 0.0
2018-Jun-08 19:28S 29°53' E 031°03'0 0.1
2018-Jun-08 19:00S 29°53' E 031°03'1 2.4
2018-Jun-08 18:31S 29°52' E 031°02'0 0.5
2018-Jun-08 18:00S 29°52' E 031°02'0 0.0
2018-Jun-08 17:27S 29°52' E 031°02'0 0.0
2018-Jun-08 17:00S 29°52' E 031°02'0 0.0
2018-Jun-08 16:30S 29°52' E 031°02'0 0.0
2018-Jun-08 16:00S 29°52' E 031°02'0 0.0
2018-Jun-08 15:30S 29°52' E 031°02'0 0.0
2018-Jun-08 14:57S 29°52' E 031°02'0 0.0
2018-Jun-08 14:30S 29°52' E 031°02'0 0.0
2018-Jun-08 14:00S 29°52' E 031°02'0 0.0
2018-Jun-08 13:30S 29°52' E 031°02'0 0.0
2018-Jun-08 13:00S 29°52' E 031°02'0 0.0
2018-Jun-08 12:30S 29°52' E 031°02'0 0.0
2018-Jun-08 12:00S 29°52' E 031°02'0 0.0
2018-Jun-08 11:30S 29°52' E 031°02'0 0.0
2018-Jun-08 11:00S 29°52' E 031°02'0 0.0
2018-Jun-08 10:30S 29°52' E 031°02'0 0.0
2018-Jun-08 10:00S 29°52' E 031°02'0 0.0
2018-Jun-08 09:30S 29°52' E 031°02'0 0.0
2018-Jun-08 09:00S 29°52' E 031°02'0 0.0
2018-Jun-08 08:30S 29°52' E 031°02'0 0.0
2018-Jun-08 08:00S 29°52' E 031°02'0 0.0
2018-Jun-08 07:30S 29°52' E 031°02'0 0.0
2018-Jun-08 07:00S 29°52' E 031°02'0 0.0
2018-Jun-08 06:30S 29°52' E 031°02'0 0.0
2018-Jun-08 06:00S 29°52' E 031°02'0 0.0
2018-Jun-08 05:27S 29°52' E 031°02'0 0.0
2018-Jun-08 05:00S 29°52' E 031°02'0 0.0
2018-Jun-08 04:30S 29°52' E 031°02'0 0.0
2018-Jun-08 04:00S 29°52' E 031°02'0 0.0
2018-Jun-08 03:30S 29°52' E 031°02'0 0.0
2018-Jun-08 03:00S 29°52' E 031°02'0 0.0
2018-Jun-08 02:30S 29°52' E 031°02'0 0.0
2018-Jun-08 02:00S 29°52' E 031°02'0 0.0
2018-Jun-08 01:30S 29°52' E 031°02'0 0.0
2018-Jun-08 01:00S 29°52' E 031°02'0 0.0
2018-Jun-08 00:30S 29°52' E 031°02'0 0.0
2018-Jun-08 00:00S 29°52' E 031°02'0 0.0
2018-Jun-07 23:30S 29°52' E 031°02'0 0.0
2018-Jun-07 23:00S 29°52' E 031°02'0 0.0
2018-Jun-07 22:30S 29°52' E 031°02'0 0.0
2018-Jun-07 22:00S 29°52' E 031°02'0 0.0
2018-Jun-07 21:30S 29°52' E 031°02'0 0.0
2018-Jun-07 20:57S 29°52' E 031°02'0 0.0
2018-Jun-07 20:30S 29°52' E 031°02'0 0.0
2018-Jun-07 20:00S 29°52' E 031°02'0 0.0
2018-Jun-07 19:30S 29°52' E 031°02'0 0.0
2018-Jun-07 19:00S 29°52' E 031°02'0 0.0
2018-Jun-07 18:30S 29°52' E 031°02'0 0.0
2018-Jun-07 18:00S 29°52' E 031°02'0 0.0
2018-Jun-07 17:30S 29°52' E 031°02'0 0.0
2018-Jun-07 17:00S 29°52' E 031°02'0 0.0
2018-Jun-07 16:30S 29°52' E 031°02'0 0.0
2018-Jun-07 16:00S 29°52' E 031°02'0 0.0
2018-Jun-07 15:30S 29°52' E 031°02'0 0.0
2018-Jun-07 15:00S 29°52' E 031°02'0 0.0
2018-Jun-07 14:27S 29°52' E 031°02'0 0.0
2018-Jun-07 13:57S 29°52' E 031°02'0 0.0
2018-Jun-07 13:30S 29°52' E 031°02'0 0.0
2018-Jun-07 13:00S 29°52' E 031°02'0 0.0
2018-Jun-07 12:30S 29°52' E 031°02'0 0.0
2018-Jun-07 12:00S 29°52' E 031°02'0 0.0
2018-Jun-07 11:30S 29°52' E 031°02'0 0.0
2018-Jun-07 11:00S 29°52' E 031°02'0 0.0
2018-Jun-07 10:30S 29°52' E 031°02'0 0.0
2018-Jun-07 10:00S 29°52' E 031°02'0 0.0
2018-Jun-07 09:30S 29°52' E 031°02'0 0.0
2018-Jun-07 09:00S 29°52' E 031°02'0 0.0
2018-Jun-07 08:27S 29°52' E 031°02'0 0.0
2018-Jun-07 08:00S 29°52' E 031°02'0 0.0
2018-Jun-07 07:30S 29°52' E 031°02'0 0.0
2018-Jun-07 07:00S 29°52' E 031°02'0 0.0
2018-Jun-07 06:30S 29°52' E 031°02'0 0.0
2018-Jun-07 06:00S 29°52' E 031°02'0 0.0
2018-Jun-07 05:30S 29°52' E 031°02'0 0.0
2018-Jun-07 05:00S 29°52' E 031°02'0 0.0
2018-Jun-07 04:27S 29°52' E 031°02'0 0.0
2018-Jun-07 04:00S 29°52' E 031°02'0 0.0
2018-Jun-07 03:30S 29°52' E 031°02'0 0.0
2018-Jun-07 03:00S 29°52' E 031°02'0 0.0
2018-Jun-07 02:30S 29°52' E 031°02'0 0.0
2018-Jun-07 02:00S 29°52' E 031°02'0 0.0
2018-Jun-07 01:30S 29°52' E 031°02'0 0.0
2018-Jun-07 01:00S 29°52' E 031°02'0 0.0
2018-Jun-07 00:30S 29°52' E 031°02'0 0.0
2018-Jun-07 00:00S 29°52' E 031°02'0 0.0
2018-Jun-06 23:30S 29°52' E 031°02'0 0.0
2018-Jun-06 23:00S 29°52' E 031°02'0 0.0
2018-Jun-06 22:30S 29°52' E 031°02'0 0.0
2018-Jun-06 22:00S 29°52' E 031°02'0 0.0
2018-Jun-06 21:30S 29°52' E 031°02'0 0.0
2018-Jun-06 21:00S 29°52' E 031°02'0 0.0
2018-Jun-06 20:30S 29°52' E 031°02'0 0.0
2018-Jun-06 20:00S 29°52' E 031°02'0 0.0
2018-Jun-06 19:30S 29°52' E 031°02'0 0.0
2018-Jun-06 19:00S 29°52' E 031°02'0 0.0
2018-Jun-06 18:30S 29°52' E 031°02'0 0.0
2018-Jun-06 18:00S 29°52' E 031°02'0 0.0
2018-Jun-06 17:30S 29°52' E 031°02'0 0.0
2018-Jun-06 17:00S 29°52' E 031°02'0 0.0
2018-Jun-06 16:30S 29°52' E 031°02'0 0.0
2018-Jun-06 16:00S 29°52' E 031°02'0 0.0
2018-Jun-06 15:30S 29°52' E 031°02'0 0.0
2018-Jun-06 15:00S 29°52' E 031°02'0 0.0
2018-Jun-06 14:30S 29°52' E 031°02'0 0.0
2018-Jun-06 14:00S 29°52' E 031°02'0 0.0
2018-Jun-06 13:30S 29°52' E 031°02'0 0.0
2018-Jun-06 13:00S 29°52' E 031°02'0 0.0
2018-Jun-06 12:30S 29°52' E 031°02'0 0.0
2018-Jun-06 12:00S 29°52' E 031°02'0 0.0
2018-Jun-06 11:30S 29°52' E 031°02'0 0.0
2018-Jun-06 11:00S 29°52' E 031°02'0 0.0
2018-Jun-06 10:30S 29°52' E 031°02'0 0.0
2018-Jun-06 10:00S 29°52' E 031°02'0 0.0
2018-Jun-06 09:27S 29°52' E 031°02'0 0.0
2018-Jun-06 08:54S 29°52' E 031°02'0 0.0
2018-Jun-06 08:30S 29°52' E 031°02'0 0.0
2018-Jun-06 08:00S 29°52' E 031°02'0 0.0
2018-Jun-06 07:30S 29°52' E 031°02'0 0.0
2018-Jun-06 07:00S 29°52' E 031°02'0 0.0
2018-Jun-06 06:30S 29°52' E 031°02'0 0.0
2018-Jun-06 06:00S 29°52' E 031°02'0 0.0
2018-Jun-06 05:30S 29°52' E 031°02'0 0.0
2018-Jun-06 05:00S 29°52' E 031°02'0 0.0
2018-Jun-06 04:30S 29°52' E 031°02'0 0.0
2018-Jun-06 04:00S 29°52' E 031°02'0 0.0
2018-Jun-06 03:30S 29°52' E 031°02'0 0.0
2018-Jun-06 03:00S 29°52' E 031°02'0 0.0
2018-Jun-06 02:30S 29°52' E 031°02'0 0.0
2018-Jun-06 02:00S 29°52' E 031°02'0 0.0
2018-Jun-06 01:30S 29°52' E 031°02'0 0.0
2018-Jun-06 01:00S 29°52' E 031°02'0 0.0
2018-Jun-06 00:30S 29°52' E 031°02'0 0.0
2018-Jun-06 00:00S 29°52' E 031°02'0 0.0
2018-Jun-05 23:30S 29°52' E 031°02'0 0.0
2018-Jun-05 23:00S 29°52' E 031°02'0 0.0
2018-Jun-05 22:30S 29°52' E 031°02'1 2.1
2018-Jun-05 22:00S 29°53' E 031°03'0 0.8
2018-Jun-05 21:30S 29°53' E 031°03'0 0.0
2018-Jun-05 20:58S 29°53' E 031°03'0 0.0
2018-Jun-05 20:28S 29°53' E 031°03'0 0.0
2018-Jun-05 19:58S 29°53' E 031°03'0 0.0
2018-Jun-05 19:28S 29°53' E 031°03'0 0.0
2018-Jun-05 18:55S 29°53' E 031°03'0 0.0
2018-Jun-05 18:28S 29°53' E 031°03'0 0.0
2018-Jun-05 17:58S 29°53' E 031°03'0 0.0
2018-Jun-05 17:28S 29°53' E 031°03'0 0.0
2018-Jun-05 16:58S 29°53' E 031°03'0 0.0
2018-Jun-05 16:28S 29°53' E 031°03'0 0.0
2018-Jun-05 15:58S 29°53' E 031°03'0 0.0
2018-Jun-05 15:28S 29°53' E 031°03'0 0.0
2018-Jun-05 14:58S 29°53' E 031°03'0 0.0
2018-Jun-05 14:28S 29°53' E 031°03'0 0.0
2018-Jun-05 13:58S 29°53' E 031°03'0 0.0
2018-Jun-05 13:28S 29°53' E 031°03'0 0.0
2018-Jun-05 12:58S 29°53' E 031°03'0 0.0
2018-Jun-05 12:28S 29°53' E 031°03'0 0.0
2018-Jun-05 11:58S 29°53' E 031°03'0 0.0
2018-Jun-05 11:28S 29°53' E 031°03'0 0.0
2018-Jun-05 10:55S 29°53' E 031°03'0 0.0
2018-Jun-05 10:28S 29°53' E 031°03'0 0.0
2018-Jun-05 09:58S 29°53' E 031°03'0 0.0
2018-Jun-05 09:28S 29°53' E 031°03'0 0.0
2018-Jun-05 08:58S 29°53' E 031°03'0 0.0
2018-Jun-05 08:28S 29°53' E 031°03'0 0.0
2018-Jun-05 07:58S 29°53' E 031°03'0 0.0
2018-Jun-05 07:28S 29°53' E 031°03'0 0.0
2018-Jun-05 06:58S 29°53' E 031°03'0 0.0
2018-Jun-05 06:28S 29°53' E 031°03'0 0.0
2018-Jun-05 05:58S 29°53' E 031°03'0 0.0
2018-Jun-05 05:28S 29°53' E 031°03'0 0.0
2018-Jun-05 04:55S 29°53' E 031°03'0 0.0
2018-Jun-05 04:28S 29°53' E 031°03'0 0.0
2018-Jun-05 03:58S 29°53' E 031°03'0 0.0
2018-Jun-05 03:28S 29°53' E 031°03'0 0.0
2018-Jun-05 02:58S 29°53' E 031°03'0 0.0
2018-Jun-05 02:28S 29°53' E 031°03'0 0.0
2018-Jun-05 01:58S 29°53' E 031°03'0 0.0
2018-Jun-05 01:28S 29°53' E 031°03'0 0.0
2018-Jun-05 00:58S 29°53' E 031°03'0 0.0
2018-Jun-05 00:28S 29°53' E 031°03'0 0.0
2018-Jun-04 23:58S 29°53' E 031°03'0 0.0
2018-Jun-04 23:28S 29°53' E 031°03'0 0.0
2018-Jun-04 22:58S 29°53' E 031°03'0 0.0
2018-Jun-04 22:28S 29°53' E 031°03'0 0.0
2018-Jun-04 21:58S 29°53' E 031°03'0 0.0
2018-Jun-04 21:28S 29°53' E 031°03'0 0.0
2018-Jun-04 20:58S 29°53' E 031°03'0 0.0
2018-Jun-04 20:28S 29°53' E 031°03'0 0.0
2018-Jun-04 19:58S 29°53' E 031°03'0 0.0
2018-Jun-04 19:28S 29°53' E 031°03'0 0.0
2018-Jun-04 18:58S 29°53' E 031°03'0 0.0
2018-Jun-04 18:28S 29°53' E 031°03'0 0.0
2018-Jun-04 17:58S 29°53' E 031°03'0 0.0
2018-Jun-04 17:28S 29°53' E 031°03'0 0.0
2018-Jun-04 16:58S 29°53' E 031°03'0 0.0
2018-Jun-04 16:28S 29°53' E 031°03'0 0.0
2018-Jun-04 15:58S 29°53' E 031°03'0 0.0
2018-Jun-04 15:28S 29°53' E 031°03'0 0.0
2018-Jun-04 14:58S 29°53' E 031°03'0 0.0
2018-Jun-04 14:28S 29°53' E 031°03'0 0.0
2018-Jun-04 13:58S 29°53' E 031°03'0 0.0
2018-Jun-04 13:28S 29°53' E 031°03'0 0.0
2018-Jun-04 12:58S 29°53' E 031°03'0 0.0
2018-Jun-04 12:28S 29°53' E 031°03'0 0.0
2018-Jun-04 11:55S 29°53' E 031°03'0 0.2
2018-Jun-04 11:28S 29°53' E 031°03'0 0.2
2018-Jun-04 10:58S 29°53' E 031°03'0 0.0
2018-Jun-04 10:25S 29°53' E 031°03'0 0.0
2018-Jun-04 09:58S 29°53' E 031°03'0 0.0
2018-Jun-04 09:25S 29°53' E 031°03'0 0.0
2018-Jun-04 08:58S 29°53' E 031°03'0 0.0
2018-Jun-04 08:28S 29°53' E 031°03'0 0.0
2018-Jun-04 07:58S 29°53' E 031°03'0 0.0
2018-Jun-04 07:28S 29°53' E 031°03'0 0.0
2018-Jun-04 06:58S 29°53' E 031°03'0 0.0
2018-Jun-04 06:28S 29°53' E 031°03'0 0.0
2018-Jun-04 05:52S 29°53' E 031°03'0 0.0
2018-Jun-04 05:28S 29°53' E 031°03'0 0.0
2018-Jun-04 04:58S 29°53' E 031°03'0 0.0
2018-Jun-04 04:28S 29°53' E 031°03'0 0.0
2018-Jun-04 03:58S 29°53' E 031°03'0 0.0
2018-Jun-04 03:28S 29°53' E 031°03'0 0.0
2018-Jun-04 02:58S 29°53' E 031°03'0 0.0
2018-Jun-04 02:25S 29°53' E 031°03'0 0.0
2018-Jun-04 01:58S 29°53' E 031°03'0 0.0
2018-Jun-04 01:25S 29°53' E 031°03'0 0.0
2018-Jun-04 00:58S 29°53' E 031°03'0 0.0
2018-Jun-04 00:28S 29°53' E 031°03'0 0.0
2018-Jun-03 23:58S 29°53' E 031°03'0 0.0
2018-Jun-03 23:28S 29°53' E 031°03'0 0.0
2018-Jun-03 22:58S 29°53' E 031°03'0 0.0
2018-Jun-03 22:28S 29°53' E 031°03'0 0.0
2018-Jun-03 21:58S 29°53' E 031°03'0 0.0
2018-Jun-03 21:28S 29°53' E 031°03'0 0.0
2018-Jun-03 20:58S 29°53' E 031°03'0 0.0
2018-Jun-03 20:30S 29°53' E 031°03'0 0.9
2018-Jun-03 20:00S 29°53' E 031°03'1 1.4
2018-Jun-03 19:30S 29°52' E 031°03'4 7.7
2018-Jun-03 19:00S 29°49' E 031°05'4 7.1
2018-Jun-03 18:31S 29°48' E 031°09'2 4.8
2018-Jun-03 18:00S 29°46' E 031°08'0 0.9
2018-Jun-03 17:30S 29°46' E 031°07'0 0.7
2018-Jun-03 17:00S 29°46' E 031°08'0 0.2
2018-Jun-03 16:28S 29°46' E 031°08'0 0.0
2018-Jun-03 15:58S 29°46' E 031°08'0 0.0
2018-Jun-03 15:28S 29°46' E 031°08'0 0.0
2018-Jun-03 14:58S 29°46' E 031°08'0 0.0
2018-Jun-03 14:28S 29°46' E 031°08'0 0.0
2018-Jun-03 13:58S 29°46' E 031°08'0 0.0
2018-Jun-03 13:28S 29°46' E 031°08'0 0.0
2018-Jun-03 12:58S 29°46' E 031°08'0 0.0
2018-Jun-03 12:28S 29°46' E 031°08'0 0.1
2018-Jun-03 11:58S 29°46' E 031°07'0 0.0
2018-Jun-03 11:28S 29°46' E 031°07'0 0.0
2018-Jun-03 10:58S 29°46' E 031°08'0 0.0
2018-Jun-03 10:28S 29°46' E 031°08'0 0.0
2018-Jun-03 09:58S 29°46' E 031°07'0 0.0
2018-Jun-03 09:28S 29°46' E 031°07'0 0.1
2018-Jun-03 08:58S 29°46' E 031°08'0 0.0
2018-Jun-03 08:28S 29°46' E 031°08'0 0.0
2018-Jun-03 07:58S 29°46' E 031°07'0 0.1
2018-Jun-03 07:28S 29°46' E 031°07'0 0.1
2018-Jun-03 06:58S 29°46' E 031°07'0 0.1
2018-Jun-03 06:28S 29°46' E 031°07'0 0.1
2018-Jun-03 05:58S 29°46' E 031°07'0 0.1
2018-Jun-03 05:25S 29°46' E 031°07'0 0.1
2018-Jun-03 04:58S 29°46' E 031°07'0 0.0
2018-Jun-03 04:28S 29°46' E 031°07'0 0.0
2018-Jun-03 03:58S 29°46' E 031°07'0 0.0
2018-Jun-03 03:22S 29°46' E 031°07'0 0.0
2018-Jun-03 02:58S 29°46' E 031°07'0 0.0
2018-Jun-03 02:28S 29°46' E 031°07'0 0.0
2018-Jun-03 01:58S 29°46' E 031°07'0 0.1
2018-Jun-03 01:28S 29°46' E 031°07'0 0.0
2018-Jun-03 00:58S 29°46' E 031°07'0 0.0
2018-Jun-03 00:28S 29°46' E 031°07'0 0.1
2018-Jun-02 23:58S 29°46' E 031°07'0 0.0
2018-Jun-02 23:28S 29°46' E 031°07'0 0.0
2018-Jun-02 22:55S 29°46' E 031°07'0 0.1
2018-Jun-02 22:28S 29°46' E 031°07'0 0.0
2018-Jun-02 21:58S 29°46' E 031°07'0 0.1
2018-Jun-02 21:28S 29°46' E 031°07'0 0.0
2018-Jun-02 20:58S 29°46' E 031°07'0 0.0
2018-Jun-02 20:28S 29°46' E 031°07'0 0.0
2018-Jun-02 19:58S 29°46' E 031°07'0 0.0
2018-Jun-02 19:28S 29°46' E 031°07'0 0.0
2018-Jun-02 18:58S 29°46' E 031°07'0 0.0
2018-Jun-02 18:28S 29°46' E 031°07'0 0.1
2018-Jun-02 17:58S 29°46' E 031°07'0 0.1
2018-Jun-02 17:28S 29°46' E 031°07'0 0.0
2018-Jun-02 16:58S 29°46' E 031°07'0 0.0
2018-Jun-02 16:25S 29°46' E 031°07'0 0.0
2018-Jun-02 15:58S 29°46' E 031°07'  

Dump ship's entire track history